Terminal Aerodrome Forecast
Issued by NWS

Home | Current Version | Previous Version | Text Only | Print | Product List | Glossary On
Versions: 1 2 3 4 5 6 7 8 9 10 11 12 13 14 15
000
FTUS44 KMAF 240112 AAB
TAFINK
TAF AMD
KINK 240112Z 2401/2424 04015G25KT P6SM SCT050 BKN200
      TEMPO 2401/2404 VRB25G35KT 5SM TSRA BKN040CB
     FM240600 07011KT P6SM BKN050
     FM241200 04014G22KT P6SM OVC050
      AMD NOT SKED=

USA.gov is the U.S. government's official web portal to all federal, state and local government web resources and services.